sensor_id;sensor_type;location;lat;lon;timestamp;P1;durP1;ratioP1;P2;durP2;ratioP2
8665;SDS011;4370;48.916;8.380;2023-12-20T00:02:21;4.60;;;3.60;;
8665;SDS011;4370;48.916;8.380;2023-12-20T00:04:46;4.47;;;3.53;;
8665;SDS011;4370;48.916;8.380;2023-12-20T00:07:13;5.20;;;3.70;;
8665;SDS011;4370;48.916;8.380;2023-12-20T00:09:40;6.33;;;3.33;;
8665;SDS011;4370;48.916;8.380;2023-12-20T00:12:05;4.40;;;3.77;;
8665;SDS011;4370;48.916;8.380;2023-12-20T00:14:31;4.43;;;3.30;;
8665;SDS011;4370;48.916;8.380;2023-12-20T00:16:57;3.97;;;3.30;;
8665;SDS011;4370;48.916;8.380;2023-12-20T00:19:24;6.20;;;3.57;;
8665;SDS011;4370;48.916;8.380;2023-12-20T00:21:50;4.87;;;3.80;;
8665;SDS011;4370;48.916;8.380;2023-12-20T00:24:15;8.37;;;4.10;;
8665;SDS011;4370;48.916;8.380;2023-12-20T00:26:43;5.17;;;4.03;;
8665;SDS011;4370;48.916;8.380;2023-12-20T00:29:09;4.13;;;3.60;;
8665;SDS011;4370;48.916;8.380;2023-12-20T00:31:36;4.93;;;3.83;;
8665;SDS011;4370;48.916;8.380;2023-12-20T00:34:04;6.97;;;3.77;;
8665;SDS011;4370;48.916;8.380;2023-12-20T00:36:33;5.40;;;3.87;;
8665;SDS011;4370;48.916;8.380;2023-12-20T00:38:58;4.20;;;3.27;;
8665;SDS011;4370;48.916;8.380;2023-12-20T00:41:24;4.70;;;3.50;;
8665;SDS011;4370;48.916;8.380;2023-12-20T00:43:49;4.00;;;3.60;;
8665;SDS011;4370;48.916;8.380;2023-12-20T00:46:16;4.17;;;3.40;;
8665;SDS011;4370;48.916;8.380;2023-12-20T00:48:42;5.70;;;3.90;;
8665;SDS011;4370;48.916;8.380;2023-12-20T00:51:14;6.20;;;3.77;;
8665;SDS011;4370;48.916;8.380;2023-12-20T00:53:42;6.73;;;3.73;;
8665;SDS011;4370;48.916;8.380;2023-12-20T00:56:08;4.47;;;3.97;;
8665;SDS011;4370;48.916;8.380;2023-12-20T00:58:34;5.67;;;3.97;;
8665;SDS011;4370;48.916;8.380;2023-12-20T01:01:01;4.23;;;3.60;;
8665;SDS011;4370;48.916;8.380;2023-12-20T01:03:26;6.10;;;4.13;;
8665;SDS011;4370;48.916;8.380;2023-12-20T01:05:52;5.77;;;3.90;;
8665;SDS011;4370;48.916;8.380;2023-12-20T01:08:17;7.07;;;4.03;;
8665;SDS011;4370;48.916;8.380;2023-12-20T01:10:43;4.60;;;3.70;;
8665;SDS011;4370;48.916;8.380;2023-12-20T01:13:09;4.20;;;3.60;;
8665;SDS011;4370;48.916;8.380;2023-12-20T01:15:34;5.80;;;3.90;;
8665;SDS011;4370;48.916;8.380;2023-12-20T01:18:03;5.00;;;4.00;;
8665;SDS011;4370;48.916;8.380;2023-12-20T01:20:34;6.00;;;3.57;;
8665;SDS011;4370;48.916;8.380;2023-12-20T01:22:59;4.17;;;3.60;;
8665;SDS011;4370;48.916;8.380;2023-12-20T01:25:29;5.07;;;3.97;;
8665;SDS011;4370;48.916;8.380;2023-12-20T01:28:05;4.67;;;3.90;;
8665;SDS011;4370;48.916;8.380;2023-12-20T01:30:31;4.60;;;3.90;;
8665;SDS011;4370;48.916;8.380;2023-12-20T01:32:56;6.70;;;3.80;;
8665;SDS011;4370;48.916;8.380;2023-12-20T01:35:23;5.60;;;3.87;;
8665;SDS011;4370;48.916;8.380;2023-12-20T01:37:50;4.10;;;3.70;;
8665;SDS011;4370;48.916;8.380;2023-12-20T01:40:16;5.73;;;3.50;;
8665;SDS011;4370;48.916;8.380;2023-12-20T01:42:42;4.73;;;3.37;;
8665;SDS011;4370;48.916;8.380;2023-12-20T01:45:09;4.10;;;3.40;;
8665;SDS011;4370;48.916;8.380;2023-12-20T01:47:35;3.87;;;3.47;;
8665;SDS011;4370;48.916;8.380;2023-12-20T01:50:01;4.10;;;3.70;;
8665;SDS011;4370;48.916;8.380;2023-12-20T01:52:28;5.50;;;3.60;;
8665;SDS011;4370;48.916;8.380;2023-12-20T01:54:56;4.33;;;3.37;;
8665;SDS011;4370;48.916;8.380;2023-12-20T01:57:27;4.77;;;3.47;;
8665;SDS011;4370;48.916;8.380;2023-12-20T01:59:53;3.50;;;3.20;;
8665;SDS011;4370;48.916;8.380;2023-12-20T02:02:19;3.50;;;3.13;;
8665;SDS011;4370;48.916;8.380;2023-12-20T02:04:45;4.57;;;3.70;;
8665;SDS011;4370;48.916;8.380;2023-12-20T02:07:12;4.73;;;3.60;;
8665;SDS011;4370;48.916;8.380;2023-12-20T02:09:38;4.43;;;3.57;;
8665;SDS011;4370;48.916;8.380;2023-12-20T02:12:05;3.50;;;3.17;;
8665;SDS011;4370;48.916;8.380;2023-12-20T02:14:30;5.97;;;3.87;;
8665;SDS011;4370;48.916;8.380;2023-12-20T02:16:59;3.57;;;3.27;;
8665;SDS011;4370;48.916;8.380;2023-12-20T02:19:25;3.33;;;2.70;;
8665;SDS011;4370;48.916;8.380;2023-12-20T02:22:04;4.40;;;3.20;;
8665;SDS011;4370;48.916;8.380;2023-12-20T02:24:40;3.80;;;2.93;;
8665;SDS011;4370;48.916;8.380;2023-12-20T02:27:06;3.90;;;2.87;;
8665;SDS011;4370;48.916;8.380;2023-12-20T02:29:34;3.70;;;3.10;;
8665;SDS011;4370;48.916;8.380;2023-12-20T02:32:07;2.90;;;2.60;;
8665;SDS011;4370;48.916;8.380;2023-12-20T02:34:32;3.80;;;2.70;;
8665;SDS011;4370;48.916;8.380;2023-12-20T02:36:58;3.67;;;2.83;;
8665;SDS011;4370;48.916;8.380;2023-12-20T02:39:25;3.53;;;2.90;;
8665;SDS011;4370;48.916;8.380;2023-12-20T02:41:50;4.20;;;3.10;;
8665;SDS011;4370;48.916;8.380;2023-12-20T02:44:19;4.97;;;3.23;;
8665;SDS011;4370;48.916;8.380;2023-12-20T02:46:45;3.63;;;3.17;;
8665;SDS011;4370;48.916;8.380;2023-12-20T02:49:13;6.83;;;3.27;;
8665;SDS011;4370;48.916;8.380;2023-12-20T02:51:39;6.03;;;3.40;;
8665;SDS011;4370;48.916;8.380;2023-12-20T02:54:04;5.77;;;3.23;;
8665;SDS011;4370;48.916;8.380;2023-12-20T02:56:31;4.47;;;3.40;;
8665;SDS011;4370;48.916;8.380;2023-12-20T02:58:59;5.10;;;3.23;;
8665;SDS011;4370;48.916;8.380;2023-12-20T03:01:25;3.87;;;3.30;;
8665;SDS011;4370;48.916;8.380;2023-12-20T03:03:51;4.73;;;3.73;;
8665;SDS011;4370;48.916;8.380;2023-12-20T03:06:18;4.23;;;3.33;;
8665;SDS011;4370;48.916;8.380;2023-12-20T03:08:45;3.93;;;3.23;;
8665;SDS011;4370;48.916;8.380;2023-12-20T03:11:14;4.30;;;3.40;;
8665;SDS011;4370;48.916;8.380;2023-12-20T03:13:39;4.30;;;3.00;;
8665;SDS011;4370;48.916;8.380;2023-12-20T03:16:13;4.03;;;3.40;;
8665;SDS011;4370;48.916;8.380;2023-12-20T03:18:44;4.73;;;3.20;;
8665;SDS011;4370;48.916;8.380;2023-12-20T03:21:09;7.67;;;4.00;;
8665;SDS011;4370;48.916;8.380;2023-12-20T03:23:35;3.30;;;2.70;;
8665;SDS011;4370;48.916;8.380;2023-12-20T03:26:01;4.20;;;3.30;;
8665;SDS011;4370;48.916;8.380;2023-12-20T03:28:27;4.90;;;3.33;;
8665;SDS011;4370;48.916;8.380;2023-12-20T03:30:55;4.43;;;3.23;;
8665;SDS011;4370;48.916;8.380;2023-12-20T03:33:20;4.27;;;2.90;;
8665;SDS011;4370;48.916;8.380;2023-12-20T03:35:46;3.70;;;3.30;;
8665;SDS011;4370;48.916;8.380;2023-12-20T03:38:12;2.97;;;2.63;;
8665;SDS011;4370;48.916;8.380;2023-12-20T03:40:37;3.53;;;2.90;;
8665;SDS011;4370;48.916;8.380;2023-12-20T03:43:03;3.37;;;2.87;;
8665;SDS011;4370;48.916;8.380;2023-12-20T03:45:28;3.10;;;2.77;;
8665;SDS011;4370;48.916;8.380;2023-12-20T03:47:56;4.37;;;2.97;;
8665;SDS011;4370;48.916;8.380;2023-12-20T03:50:22;4.03;;;2.90;;
8665;SDS011;4370;48.916;8.380;2023-12-20T03:52:47;2.97;;;2.67;;
8665;SDS011;4370;48.916;8.380;2023-12-20T03:55:16;3.83;;;2.67;;
8665;SDS011;4370;48.916;8.380;2023-12-20T03:57:42;4.37;;;3.00;;
8665;SDS011;4370;48.916;8.380;2023-12-20T04:00:08;4.73;;;3.00;;
8665;SDS011;4370;48.916;8.380;2023-12-20T04:02:38;4.30;;;3.03;;
8665;SDS011;4370;48.916;8.380;2023-12-20T04:05:05;3.00;;;2.70;;
8665;SDS011;4370;48.916;8.380;2023-12-20T04:07:31;3.57;;;2.77;;
8665;SDS011;4370;48.916;8.380;2023-12-20T04:09:57;2.83;;;2.50;;
8665;SDS011;4370;48.916;8.380;2023-12-20T04:12:23;3.87;;;2.67;;
8665;SDS011;4370;48.916;8.380;2023-12-20T04:14:48;4.13;;;2.77;;
8665;SDS011;4370;48.916;8.380;2023-12-20T04:17:15;2.77;;;2.43;;
8665;SDS011;4370;48.916;8.380;2023-12-20T04:19:41;2.83;;;2.50;;
8665;SDS011;4370;48.916;8.380;2023-12-20T04:22:08;2.53;;;2.33;;
8665;SDS011;4370;48.916;8.380;2023-12-20T04:24:34;3.20;;;2.53;;
8665;SDS011;4370;48.916;8.380;2023-12-20T04:27:01;3.00;;;2.70;;
8665;SDS011;4370;48.916;8.380;2023-12-20T04:29:28;3.63;;;2.70;;
8665;SDS011;4370;48.916;8.380;2023-12-20T04:31:55;3.20;;;2.53;;
8665;SDS011;4370;48.916;8.380;2023-12-20T04:34:21;4.57;;;2.70;;
8665;SDS011;4370;48.916;8.380;2023-12-20T04:36:48;3.13;;;2.50;;
8665;SDS011;4370;48.916;8.380;2023-12-20T04:39:13;3.17;;;2.50;;
8665;SDS011;4370;48.916;8.380;2023-12-20T04:41:41;3.40;;;2.57;;
8665;SDS011;4370;48.916;8.380;2023-12-20T04:44:06;2.80;;;2.60;;
8665;SDS011;4370;48.916;8.380;2023-12-20T04:46:32;3.60;;;2.80;;
8665;SDS011;4370;48.916;8.380;2023-12-20T04:48:58;3.40;;;3.10;;
8665;SDS011;4370;48.916;8.380;2023-12-20T04:51:24;3.80;;;2.90;;
8665;SDS011;4370;48.916;8.380;2023-12-20T04:53:50;3.77;;;3.10;;
8665;SDS011;4370;48.916;8.380;2023-12-20T04:56:16;3.43;;;3.00;;
8665;SDS011;4370;48.916;8.380;2023-12-20T04:58:42;3.60;;;3.20;;
8665;SDS011;4370;48.916;8.380;2023-12-20T05:01:08;5.63;;;3.53;;
8665;SDS011;4370;48.916;8.380;2023-12-20T05:03:35;6.93;;;3.10;;
8665;SDS011;4370;48.916;8.380;2023-12-20T05:06:02;3.80;;;3.00;;
8665;SDS011;4370;48.916;8.380;2023-12-20T05:08:28;6.33;;;3.50;;
8665;SDS011;4370;48.916;8.380;2023-12-20T05:10:54;4.73;;;3.30;;
8665;SDS011;4370;48.916;8.380;2023-12-20T05:13:23;6.73;;;3.63;;
8665;SDS011;4370;48.916;8.380;2023-12-20T05:15:48;5.20;;;4.03;;
8665;SDS011;4370;48.916;8.380;2023-12-20T05:18:14;4.10;;;3.20;;
8665;SDS011;4370;48.916;8.380;2023-12-20T05:20:40;9.37;;;4.10;;
8665;SDS011;4370;48.916;8.380;2023-12-20T05:23:06;6.23;;;3.33;;
8665;SDS011;4370;48.916;8.380;2023-12-20T05:25:31;4.70;;;3.40;;
8665;SDS011;4370;48.916;8.380;2023-12-20T05:27:58;4.40;;;3.40;;
8665;SDS011;4370;48.916;8.380;2023-12-20T05:30:33;5.57;;;3.50;;
8665;SDS011;4370;48.916;8.380;2023-12-20T05:32:59;5.10;;;3.70;;
8665;SDS011;4370;48.916;8.380;2023-12-20T05:35:24;4.23;;;3.83;;
8665;SDS011;4370;48.916;8.380;2023-12-20T05:37:50;5.10;;;4.03;;
8665;SDS011;4370;48.916;8.380;2023-12-20T05:40:16;4.40;;;4.00;;
8665;SDS011;4370;48.916;8.380;2023-12-20T05:42:43;4.83;;;4.30;;
8665;SDS011;4370;48.916;8.380;2023-12-20T05:45:09;5.73;;;4.30;;
8665;SDS011;4370;48.916;8.380;2023-12-20T05:47:39;4.70;;;3.83;;
8665;SDS011;4370;48.916;8.380;2023-12-20T05:50:05;6.40;;;4.07;;
8665;SDS011;4370;48.916;8.380;2023-12-20T05:52:31;5.50;;;4.60;;
8665;SDS011;4370;48.916;8.380;2023-12-20T05:54:56;5.83;;;4.33;;
8665;SDS011;4370;48.916;8.380;2023-12-20T05:57:26;5.60;;;3.93;;
8665;SDS011;4370;48.916;8.380;2023-12-20T05:59:51;5.80;;;4.37;;
8665;SDS011;4370;48.916;8.380;2023-12-20T06:02:18;6.43;;;4.43;;
8665;SDS011;4370;48.916;8.380;2023-12-20T06:04:45;5.63;;;4.40;;
8665;SDS011;4370;48.916;8.380;2023-12-20T06:07:15;5.40;;;4.80;;
8665;SDS011;4370;48.916;8.380;2023-12-20T06:09:42;5.03;;;4.37;;
8665;SDS011;4370;48.916;8.380;2023-12-20T06:12:07;8.47;;;5.37;;
8665;SDS011;4370;48.916;8.380;2023-12-20T06:14:33;7.33;;;5.73;;
8665;SDS011;4370;48.916;8.380;2023-12-20T06:16:59;8.73;;;5.70;;
8665;SDS011;4370;48.916;8.380;2023-12-20T06:19:26;9.80;;;6.70;;
8665;SDS011;4370;48.916;8.380;2023-12-20T06:21:52;9.07;;;5.90;;
8665;SDS011;4370;48.916;8.380;2023-12-20T06:24:17;5.70;;;4.73;;
8665;SDS011;4370;48.916;8.380;2023-12-20T06:26:43;9.10;;;5.43;;
8665;SDS011;4370;48.916;8.380;2023-12-20T06:29:09;10.23;;;5.30;;
8665;SDS011;4370;48.916;8.380;2023-12-20T06:31:34;5.77;;;4.90;;
8665;SDS011;4370;48.916;8.380;2023-12-20T06:34:00;6.50;;;4.80;;
8665;SDS011;4370;48.916;8.380;2023-12-20T06:36:28;5.27;;;4.73;;
8665;SDS011;4370;48.916;8.380;2023-12-20T06:38:56;8.40;;;5.43;;
8665;SDS011;4370;48.916;8.380;2023-12-20T06:41:21;6.57;;;4.37;;
8665;SDS011;4370;48.916;8.380;2023-12-20T06:43:49;7.33;;;5.40;;
8665;SDS011;4370;48.916;8.380;2023-12-20T06:46:15;6.77;;;5.30;;
8665;SDS011;4370;48.916;8.380;2023-12-20T06:48:41;8.50;;;5.63;;
8665;SDS011;4370;48.916;8.380;2023-12-20T06:51:10;6.53;;;5.07;;
8665;SDS011;4370;48.916;8.380;2023-12-20T06:53:40;5.60;;;4.90;;
8665;SDS011;4370;48.916;8.380;2023-12-20T06:56:07;5.90;;;4.57;;
8665;SDS011;4370;48.916;8.380;2023-12-20T06:58:34;6.17;;;4.27;;
8665;SDS011;4370;48.916;8.380;2023-12-20T07:01:00;4.93;;;3.90;;
8665;SDS011;4370;48.916;8.380;2023-12-20T07:03:27;5.87;;;4.30;;
8665;SDS011;4370;48.916;8.380;2023-12-20T07:05:53;4.47;;;3.83;;
8665;SDS011;4370;48.916;8.380;2023-12-20T07:08:18;7.07;;;4.60;;
8665;SDS011;4370;48.916;8.380;2023-12-20T07:10:45;4.70;;;4.20;;
8665;SDS011;4370;48.916;8.380;2023-12-20T07:13:11;5.87;;;4.23;;
8665;SDS011;4370;48.916;8.380;2023-12-20T07:15:37;5.37;;;4.43;;
8665;SDS011;4370;48.916;8.380;2023-12-20T07:18:05;5.83;;;5.07;;
8665;SDS011;4370;48.916;8.380;2023-12-20T07:20:31;7.20;;;4.37;;
8665;SDS011;4370;48.916;8.380;2023-12-20T07:22:59;6.77;;;5.23;;
8665;SDS011;4370;48.916;8.380;2023-12-20T07:25:24;7.93;;;6.07;;
8665;SDS011;4370;48.916;8.380;2023-12-20T07:27:52;9.57;;;6.00;;
8665;SDS011;4370;48.916;8.380;2023-12-20T07:30:17;8.03;;;5.90;;
8665;SDS011;4370;48.916;8.380;2023-12-20T07:32:43;7.70;;;6.20;;
8665;SDS011;4370;48.916;8.380;2023-12-20T07:35:09;6.53;;;5.40;;
8665;SDS011;4370;48.916;8.380;2023-12-20T07:37:34;8.93;;;6.47;;
8665;SDS011;4370;48.916;8.380;2023-12-20T07:40:00;8.70;;;6.90;;
8665;SDS011;4370;48.916;8.380;2023-12-20T07:42:26;7.87;;;6.10;;
8665;SDS011;4370;48.916;8.380;2023-12-20T07:44:51;7.73;;;6.00;;
8665;SDS011;4370;48.916;8.380;2023-12-20T07:47:17;6.57;;;5.87;;
8665;SDS011;4370;48.916;8.380;2023-12-20T07:49:46;8.07;;;6.17;;
8665;SDS011;4370;48.916;8.380;2023-12-20T07:52:13;6.63;;;5.23;;
8665;SDS011;4370;48.916;8.380;2023-12-20T07:54:39;7.67;;;5.83;;
8665;SDS011;4370;48.916;8.380;2023-12-20T07:57:05;10.23;;;6.17;;
8665;SDS011;4370;48.916;8.380;2023-12-20T07:59:30;8.50;;;6.13;;
8665;SDS011;4370;48.916;8.380;2023-12-20T08:01:57;7.33;;;5.73;;
8665;SDS011;4370;48.916;8.380;2023-12-20T08:04:23;7.10;;;5.33;;
8665;SDS011;4370;48.916;8.380;2023-12-20T08:06:51;7.43;;;5.47;;
8665;SDS011;4370;48.916;8.380;2023-12-20T08:09:17;8.00;;;5.53;;
8665;SDS011;4370;48.916;8.380;2023-12-20T08:11:46;9.03;;;5.83;;
8665;SDS011;4370;48.916;8.380;2023-12-20T08:14:12;8.33;;;5.23;;
8665;SDS011;4370;48.916;8.380;2023-12-20T08:16:37;9.70;;;5.10;;
8665;SDS011;4370;48.916;8.380;2023-12-20T08:19:09;8.90;;;4.73;;
8665;SDS011;4370;48.916;8.380;2023-12-20T08:21:40;7.53;;;5.40;;
8665;SDS011;4370;48.916;8.380;2023-12-20T08:24:08;7.23;;;4.73;;
8665;SDS011;4370;48.916;8.380;2023-12-20T08:26:34;8.70;;;5.10;;
8665;SDS011;4370;48.916;8.380;2023-12-20T08:29:00;6.10;;;4.40;;
8665;SDS011;4370;48.916;8.380;2023-12-20T08:31:25;8.23;;;5.20;;
8665;SDS011;4370;48.916;8.380;2023-12-20T08:33:52;9.90;;;4.90;;
8665;SDS011;4370;48.916;8.380;2023-12-20T08:36:19;11.03;;;5.93;;
8665;SDS011;4370;48.916;8.380;2023-12-20T08:38:47;14.50;;;7.93;;
8665;SDS011;4370;48.916;8.380;2023-12-20T08:43:49;10.93;;;6.23;;
8665;SDS011;4370;48.916;8.380;2023-12-20T08:46:17;8.03;;;5.00;;
8665;SDS011;4370;48.916;8.380;2023-12-20T08:48:44;9.97;;;5.70;;
8665;SDS011;4370;48.916;8.380;2023-12-20T08:51:10;7.90;;;5.80;;
8665;SDS011;4370;48.916;8.380;2023-12-20T08:53:36;7.77;;;4.70;;
8665;SDS011;4370;48.916;8.380;2023-12-20T08:56:01;9.27;;;4.50;;
8665;SDS011;4370;48.916;8.380;2023-12-20T08:58:27;10.13;;;4.87;;
8665;SDS011;4370;48.916;8.380;2023-12-20T09:00:53;9.10;;;5.10;;
8665;SDS011;4370;48.916;8.380;2023-12-20T09:03:19;5.17;;;4.20;;
8665;SDS011;4370;48.916;8.380;2023-12-20T09:05:44;6.53;;;4.00;;
8665;SDS011;4370;48.916;8.380;2023-12-20T09:08:11;6.57;;;4.10;;
8665;SDS011;4370;48.916;8.380;2023-12-20T09:10:37;6.63;;;3.83;;
8665;SDS011;4370;48.916;8.380;2023-12-20T09:13:03;8.47;;;3.83;;
8665;SDS011;4370;48.916;8.380;2023-12-20T09:15:29;5.90;;;3.37;;
8665;SDS011;4370;48.916;8.380;2023-12-20T09:17:55;6.97;;;4.07;;
8665;SDS011;4370;48.916;8.380;2023-12-20T09:20:21;9.13;;;3.40;;
8665;SDS011;4370;48.916;8.380;2023-12-20T09:22:48;5.80;;;3.27;;
8665;SDS011;4370;48.916;8.380;2023-12-20T09:25:15;8.07;;;3.47;;
8665;SDS011;4370;48.916;8.380;2023-12-20T09:27:42;5.10;;;3.57;;
8665;SDS011;4370;48.916;8.380;2023-12-20T09:30:11;9.53;;;4.00;;
8665;SDS011;4370;48.916;8.380;2023-12-20T09:32:37;8.17;;;3.77;;
8665;SDS011;4370;48.916;8.380;2023-12-20T09:35:03;4.57;;;3.40;;
8665;SDS011;4370;48.916;8.380;2023-12-20T09:37:31;7.57;;;3.67;;
8665;SDS011;4370;48.916;8.380;2023-12-20T09:39:57;4.43;;;3.50;;
8665;SDS011;4370;48.916;8.380;2023-12-20T09:42:29;8.40;;;4.30;;
8665;SDS011;4370;48.916;8.380;2023-12-20T09:45:08;7.87;;;3.13;;
8665;SDS011;4370;48.916;8.380;2023-12-20T09:47:38;7.57;;;3.10;;
8665;SDS011;4370;48.916;8.380;2023-12-20T09:50:05;5.73;;;3.07;;
8665;SDS011;4370;48.916;8.380;2023-12-20T09:52:31;5.10;;;3.00;;
8665;SDS011;4370;48.916;8.380;2023-12-20T09:54:59;8.27;;;2.70;;
8665;SDS011;4370;48.916;8.380;2023-12-20T09:57:26;10.63;;;2.97;;
8665;SDS011;4370;48.916;8.380;2023-12-20T09:59:55;7.03;;;3.20;;
8665;SDS011;4370;48.916;8.380;2023-12-20T10:02:22;5.70;;;3.47;;
8665;SDS011;4370;48.916;8.380;2023-12-20T10:04:54;7.73;;;3.20;;
8665;SDS011;4370;48.916;8.380;2023-12-20T10:07:21;7.80;;;3.80;;
8665;SDS011;4370;48.916;8.380;2023-12-20T10:09:47;5.80;;;2.97;;
8665;SDS011;4370;48.916;8.380;2023-12-20T10:12:13;7.90;;;3.07;;
8665;SDS011;4370;48.916;8.380;2023-12-20T10:14:38;8.20;;;3.37;;
8665;SDS011;4370;48.916;8.380;2023-12-20T10:17:08;8.07;;;2.83;;
8665;SDS011;4370;48.916;8.380;2023-12-20T10:19:37;5.37;;;3.10;;
8665;SDS011;4370;48.916;8.380;2023-12-20T10:22:06;6.17;;;3.20;;
8665;SDS011;4370;48.916;8.380;2023-12-20T10:24:32;6.50;;;2.73;;
8665;SDS011;4370;48.916;8.380;2023-12-20T10:27:01;8.00;;;3.63;;
8665;SDS011;4370;48.916;8.380;2023-12-20T10:29:35;8.40;;;3.30;;
8665;SDS011;4370;48.916;8.380;2023-12-20T10:34:48;5.67;;;3.00;;
8665;SDS011;4370;48.916;8.380;2023-12-20T10:37:14;9.70;;;4.03;;
8665;SDS011;4370;48.916;8.380;2023-12-20T10:39:39;8.73;;;3.37;;
8665;SDS011;4370;48.916;8.380;2023-12-20T10:42:07;9.73;;;3.10;;
8665;SDS011;4370;48.916;8.380;2023-12-20T10:44:38;5.03;;;3.00;;
8665;SDS011;4370;48.916;8.380;2023-12-20T10:47:05;5.23;;;2.83;;
8665;SDS011;4370;48.916;8.380;2023-12-20T10:49:32;8.97;;;2.93;;
8665;SDS011;4370;48.916;8.380;2023-12-20T10:52:01;11.47;;;3.37;;
8665;SDS011;4370;48.916;8.380;2023-12-20T10:54:29;5.27;;;2.90;;
8665;SDS011;4370;48.916;8.380;2023-12-20T10:56:54;5.27;;;2.90;;
8665;SDS011;4370;48.916;8.380;2023-12-20T10:59:22;8.70;;;3.03;;
8665;SDS011;4370;48.916;8.380;2023-12-20T11:01:49;6.53;;;2.93;;
8665;SDS011;4370;48.916;8.380;2023-12-20T11:04:15;5.30;;;3.00;;
8665;SDS011;4370;48.916;8.380;2023-12-20T11:06:52;8.03;;;3.00;;
8665;SDS011;4370;48.916;8.380;2023-12-20T11:09:26;9.33;;;2.80;;
8665;SDS011;4370;48.916;8.380;2023-12-20T11:17:12;11.33;;;3.07;;
8665;SDS011;4370;48.916;8.380;2023-12-20T11:22:26;6.27;;;2.80;;
8665;SDS011;4370;48.916;8.380;2023-12-20T11:24:58;4.83;;;2.60;;
8665;SDS011;4370;48.916;8.380;2023-12-20T11:27:33;7.90;;;2.93;;
8665;SDS011;4370;48.916;8.380;2023-12-20T11:30:04;4.40;;;2.30;;
8665;SDS011;4370;48.916;8.380;2023-12-20T11:32:34;11.60;;;4.03;;
8665;SDS011;4370;48.916;8.380;2023-12-20T11:35:16;7.27;;;2.50;;
8665;SDS011;4370;48.916;8.380;2023-12-20T11:37:44;6.60;;;2.83;;
8665;SDS011;4370;48.916;8.380;2023-12-20T11:40:15;10.57;;;3.00;;
8665;SDS011;4370;48.916;8.380;2023-12-20T11:42:43;7.97;;;2.90;;
8665;SDS011;4370;48.916;8.380;2023-12-20T11:45:14;11.33;;;3.37;;
8665;SDS011;4370;48.916;8.380;2023-12-20T11:47:45;5.40;;;2.37;;
8665;SDS011;4370;48.916;8.380;2023-12-20T11:50:12;7.33;;;2.47;;
8665;SDS011;4370;48.916;8.380;2023-12-20T11:52:37;9.70;;;3.10;;
8665;SDS011;4370;48.916;8.380;2023-12-20T11:55:03;6.37;;;2.53;;
8665;SDS011;4370;48.916;8.380;2023-12-20T11:57:33;9.17;;;2.57;;
8665;SDS011;4370;48.916;8.380;2023-12-20T12:00:00;8.90;;;2.60;;
8665;SDS011;4370;48.916;8.380;2023-12-20T12:02:27;4.20;;;2.43;;
8665;SDS011;4370;48.916;8.380;2023-12-20T12:04:54;6.40;;;2.43;;
8665;SDS011;4370;48.916;8.380;2023-12-20T12:10:20;6.43;;;2.20;;
8665;SDS011;4370;48.916;8.380;2023-12-20T12:12:45;5.03;;;2.10;;
8665;SDS011;4370;48.916;8.380;2023-12-20T12:15:11;7.17;;;2.60;;
8665;SDS011;4370;48.916;8.380;2023-12-20T12:17:38;11.83;;;3.27;;
8665;SDS011;4370;48.916;8.380;2023-12-20T12:20:05;7.03;;;2.30;;
8665;SDS011;4370;48.916;8.380;2023-12-20T12:22:31;7.70;;;2.30;;
8665;SDS011;4370;48.916;8.380;2023-12-20T12:24:58;7.33;;;2.43;;
8665;SDS011;4370;48.916;8.380;2023-12-20T12:27:34;4.53;;;2.60;;
8665;SDS011;4370;48.916;8.380;2023-12-20T12:30:05;6.53;;;2.60;;
8665;SDS011;4370;48.916;8.380;2023-12-20T12:32:32;4.70;;;2.30;;
8665;SDS011;4370;48.916;8.380;2023-12-20T12:34:58;4.00;;;2.33;;
8665;SDS011;4370;48.916;8.380;2023-12-20T12:37:24;6.33;;;2.23;;
8665;SDS011;4370;48.916;8.380;2023-12-20T12:39:52;5.63;;;2.20;;
8665;SDS011;4370;48.916;8.380;2023-12-20T12:42:19;7.93;;;2.60;;
8665;SDS011;4370;48.916;8.380;2023-12-20T12:44:47;8.90;;;2.83;;
8665;SDS011;4370;48.916;8.380;2023-12-20T12:47:12;5.37;;;2.20;;
8665;SDS011;4370;48.916;8.380;2023-12-20T12:49:40;9.03;;;2.50;;
8665;SDS011;4370;48.916;8.380;2023-12-20T12:52:05;5.03;;;2.23;;
8665;SDS011;4370;48.916;8.380;2023-12-20T12:54:32;6.80;;;2.73;;
8665;SDS011;4370;48.916;8.380;2023-12-20T12:56:58;6.87;;;2.30;;
8665;SDS011;4370;48.916;8.380;2023-12-20T12:59:25;7.13;;;2.73;;
8665;SDS011;4370;48.916;8.380;2023-12-20T13:01:51;10.63;;;2.57;;
8665;SDS011;4370;48.916;8.380;2023-12-20T13:04:18;4.90;;;2.50;;
8665;SDS011;4370;48.916;8.380;2023-12-20T13:06:49;9.47;;;2.87;;
8665;SDS011;4370;48.916;8.380;2023-12-20T13:09:16;5.23;;;2.33;;
8665;SDS011;4370;48.916;8.380;2023-12-20T13:11:41;9.53;;;2.67;;
8665;SDS011;4370;48.916;8.380;2023-12-20T13:14:07;7.60;;;2.20;;
8665;SDS011;4370;48.916;8.380;2023-12-20T13:16:35;8.70;;;2.40;;
8665;SDS011;4370;48.916;8.380;2023-12-20T13:19:01;8.70;;;2.80;;
8665;SDS011;4370;48.916;8.380;2023-12-20T13:21:27;7.13;;;2.03;;
8665;SDS011;4370;48.916;8.380;2023-12-20T13:23:54;9.90;;;3.17;;
8665;SDS011;4370;48.916;8.380;2023-12-20T13:26:19;9.27;;;3.57;;
8665;SDS011;4370;48.916;8.380;2023-12-20T13:28:45;7.63;;;2.97;;
8665;SDS011;4370;48.916;8.380;2023-12-20T13:31:20;7.33;;;2.77;;
8665;SDS011;4370;48.916;8.380;2023-12-20T13:33:51;5.43;;;3.00;;
8665;SDS011;4370;48.916;8.380;2023-12-20T13:36:19;6.87;;;3.53;;
8665;SDS011;4370;48.916;8.380;2023-12-20T13:38:46;10.27;;;3.00;;
8665;SDS011;4370;48.916;8.380;2023-12-20T13:41:15;9.10;;;2.90;;
8665;SDS011;4370;48.916;8.380;2023-12-20T13:43:40;7.00;;;2.70;;
8665;SDS011;4370;48.916;8.380;2023-12-20T13:46:07;8.10;;;3.10;;
8665;SDS011;4370;48.916;8.380;2023-12-20T13:48:33;9.20;;;2.83;;
8665;SDS011;4370;48.916;8.380;2023-12-20T13:50:59;9.63;;;2.80;;
8665;SDS011;4370;48.916;8.380;2023-12-20T13:53:29;6.00;;;2.60;;
8665;SDS011;4370;48.916;8.380;2023-12-20T13:56:04;7.90;;;2.67;;
8665;SDS011;4370;48.916;8.380;2023-12-20T13:58:30;8.47;;;2.87;;
8665;SDS011;4370;48.916;8.380;2023-12-20T14:00:56;7.90;;;2.80;;
8665;SDS011;4370;48.916;8.380;2023-12-20T14:03:29;7.73;;;2.83;;
8665;SDS011;4370;48.916;8.380;2023-12-20T14:05:56;7.60;;;2.57;;
8665;SDS011;4370;48.916;8.380;2023-12-20T14:08:24;5.33;;;2.47;;
8665;SDS011;4370;48.916;8.380;2023-12-20T14:11:22;11.17;;;3.40;;
8665;SDS011;4370;48.916;8.380;2023-12-20T14:14:06;9.27;;;3.53;;
8665;SDS011;4370;48.916;8.380;2023-12-20T14:16:33;9.83;;;3.30;;
8665;SDS011;4370;48.916;8.380;2023-12-20T14:19:12;9.70;;;3.37;;
8665;SDS011;4370;48.916;8.380;2023-12-20T14:21:37;9.60;;;3.77;;
8665;SDS011;4370;48.916;8.380;2023-12-20T14:24:03;6.87;;;2.60;;
8665;SDS011;4370;48.916;8.380;2023-12-20T14:26:30;8.70;;;3.20;;
8665;SDS011;4370;48.916;8.380;2023-12-20T14:28:56;8.77;;;3.60;;
8665;SDS011;4370;48.916;8.380;2023-12-20T14:31:22;13.33;;;3.93;;
8665;SDS011;4370;48.916;8.380;2023-12-20T14:33:50;9.10;;;2.90;;
8665;SDS011;4370;48.916;8.380;2023-12-20T14:36:19;7.43;;;2.73;;
8665;SDS011;4370;48.916;8.380;2023-12-20T14:38:46;6.60;;;2.73;;
8665;SDS011;4370;48.916;8.380;2023-12-20T14:41:28;9.93;;;3.00;;
8665;SDS011;4370;48.916;8.380;2023-12-20T14:53:21;11.67;;;3.47;;
8665;SDS011;4370;48.916;8.380;2023-12-20T14:55:48;6.90;;;3.03;;
8665;SDS011;4370;48.916;8.380;2023-12-20T15:00:56;6.60;;;2.70;;
8665;SDS011;4370;48.916;8.380;2023-12-20T15:03:22;9.80;;;2.70;;
8665;SDS011;4370;48.916;8.380;2023-12-20T15:05:48;9.00;;;2.80;;
8665;SDS011;4370;48.916;8.380;2023-12-20T15:08:19;6.93;;;2.63;;
8665;SDS011;4370;48.916;8.380;2023-12-20T15:10:46;10.00;;;3.13;;
8665;SDS011;4370;48.916;8.380;2023-12-20T15:13:14;8.83;;;3.07;;
8665;SDS011;4370;48.916;8.380;2023-12-20T15:16:12;8.70;;;3.27;;
8665;SDS011;4370;48.916;8.380;2023-12-20T15:18:41;8.87;;;2.40;;
8665;SDS011;4370;48.916;8.380;2023-12-20T15:21:10;9.87;;;3.23;;
8665;SDS011;4370;48.916;8.380;2023-12-20T15:24:11;8.57;;;3.37;;
8665;SDS011;4370;48.916;8.380;2023-12-20T15:26:53;8.37;;;3.03;;
8665;SDS011;4370;48.916;8.380;2023-12-20T15:29:19;12.77;;;4.10;;
8665;SDS011;4370;48.916;8.380;2023-12-20T15:41:33;9.27;;;3.80;;
8665;SDS011;4370;48.916;8.380;2023-12-20T15:44:20;6.27;;;3.10;;
8665;SDS011;4370;48.916;8.380;2023-12-20T15:46:53;9.70;;;3.17;;
8665;SDS011;4370;48.916;8.380;2023-12-20T15:49:19;8.57;;;3.20;;
8665;SDS011;4370;48.916;8.380;2023-12-20T15:51:47;5.80;;;2.53;;
8665;SDS011;4370;48.916;8.380;2023-12-20T15:58:08;12.70;;;3.50;;
8665;SDS011;4370;48.916;8.380;2023-12-20T16:03:51;8.20;;;2.97;;